createdAt,value
2019-05-26T00:01:17.656Z,99889.73
2019-05-26T00:03:50.348Z,99888.39
2019-05-26T00:06:22.907Z,99882.60
2019-05-26T00:08:55.615Z,99881.29
2019-05-26T00:11:28.106Z,99879.15
2019-05-26T00:14:02.355Z,99885.57
2019-05-26T00:16:35.226Z,99884.97
2019-05-26T00:19:08.205Z,99884.25
2019-05-26T00:21:40.669Z,99878.02
2019-05-26T00:24:13.345Z,99877.23
2019-05-26T00:26:46.070Z,99874.53
2019-05-26T00:29:19.087Z,99882.48
2019-05-26T00:31:52.235Z,99875.77
2019-05-26T00:34:24.876Z,99867.25
2019-05-26T00:36:57.676Z,99867.33
2019-05-26T00:39:30.434Z,99869.02
2019-05-26T00:42:03.245Z,99864.70
2019-05-26T00:44:35.995Z,99866.57
2019-05-26T00:47:09.126Z,99872.58
2019-05-26T00:49:41.675Z,99872.66
2019-05-26T00:52:14.958Z,99874.60
2019-05-26T00:54:47.647Z,99877.98
2019-05-26T00:57:20.194Z,99875.35
2019-05-26T00:59:53.003Z,99870.36
2019-05-26T01:02:27.356Z,99871.27
2019-05-26T01:05:00.215Z,99874.22
2019-05-26T01:07:32.899Z,99870.78
2019-05-26T01:10:05.967Z,99874.08
2019-05-26T01:12:38.405Z,99874.27
2019-05-26T01:15:11.503Z,99872.25
2019-05-26T01:17:45.505Z,99872.05
2019-05-26T01:20:18.180Z,99867.33
2019-05-26T01:22:53.686Z,99874.98
2019-05-26T01:25:25.235Z,99874.72
2019-05-26T01:27:57.775Z,99873.59
2019-05-26T01:30:37.968Z,99873.44
2019-05-26T01:33:10.615Z,99878.95
2019-05-26T01:35:43.737Z,99874.70
2019-05-26T01:38:23.603Z,99875.22
2019-05-26T01:40:51.315Z,99874.87
2019-05-26T01:43:23.928Z,99879.42
2019-05-26T01:45:56.552Z,99878.25
2019-05-26T01:48:30.025Z,99880.13
2019-05-26T01:51:02.787Z,99880.82
2019-05-26T01:53:35.315Z,99878.48
2019-05-26T01:56:07.946Z,99884.42
2019-05-26T01:58:40.535Z,99878.80
2019-05-26T02:01:13.455Z,99888.53
2019-05-26T02:03:46.205Z,99881.70
2019-05-26T02:06:20.475Z,99885.75
2019-05-26T02:08:53.384Z,99881.50
2019-05-26T02:11:26.068Z,99882.88
2019-05-26T02:13:58.839Z,99883.57
2019-05-26T02:16:31.715Z,99880.19
2019-05-26T02:19:04.719Z,99878.95
2019-05-26T02:21:37.485Z,99881.12
2019-05-26T02:24:10.235Z,99883.81
2019-05-26T02:26:42.986Z,99884.02
2019-05-26T02:29:15.625Z,99887.95
2019-05-26T02:31:48.505Z,99887.41
2019-05-26T02:34:21.267Z,99890.95
2019-05-26T02:36:53.767Z,99894.41
2019-05-26T02:39:28.466Z,99895.66
2019-05-26T02:42:01.405Z,99890.89
2019-05-26T02:44:34.277Z,99888.34
2019-05-26T02:47:09.829Z,99889.95
2019-05-26T02:49:42.873Z,99891.34
2019-05-26T02:52:15.958Z,99891.72
2019-05-26T02:54:49.001Z,99895.14
2019-05-26T02:57:22.127Z,99897.59
2019-05-26T02:59:55.066Z,99896.59
2019-05-26T03:02:28.359Z,99900.70
2019-05-26T03:05:01.515Z,99898.28
2019-05-26T03:07:36.738Z,99896.20
2019-05-26T03:10:09.575Z,99896.58
2019-05-26T03:12:44.568Z,99903.52
2019-05-26T03:15:18.215Z,99907.39
2019-05-26T03:17:52.797Z,99908.81
2019-05-26T03:20:25.536Z,99916.13
2019-05-26T03:23:01.497Z,99914.38
2019-05-26T03:25:36.163Z,99918.58
2019-05-26T03:28:08.996Z,99920.74
2019-05-26T03:30:41.738Z,99918.25
2019-05-26T03:33:14.629Z,99921.80
2019-05-26T03:35:47.459Z,99922.34
2019-05-26T03:38:20.336Z,99922.50
2019-05-26T03:40:53.122Z,99922.18
2019-05-26T03:43:25.907Z,99919.08
2019-05-26T03:46:20.910Z,99916.19
2019-05-26T03:48:53.617Z,99918.80
2019-05-26T03:51:26.335Z,99905.92
2019-05-26T03:53:58.718Z,99915.50
2019-05-26T03:56:31.705Z,99918.88
2019-05-26T03:59:04.167Z,99913.66
2019-05-26T04:01:36.919Z,99918.98
2019-05-26T04:04:09.597Z,99916.58
2019-05-26T04:06:42.427Z,99913.22
2019-05-26T04:09:15.891Z,99921.34
2019-05-26T04:11:48.406Z,99918.36
2019-05-26T04:14:20.912Z,99918.23
2019-05-26T04:16:56.342Z,99920.55
2019-05-26T04:19:27.897Z,99920.86
2019-05-26T04:22:00.469Z,99919.47
2019-05-26T04:24:33.487Z,99923.34
2019-05-26T04:27:06.068Z,99918.58
2019-05-26T04:29:38.663Z,99920.34
2019-05-26T04:32:12.028Z,99923.35
2019-05-26T04:34:44.894Z,99928.30
2019-05-26T04:37:17.460Z,99924.84
2019-05-26T04:39:50.035Z,99923.15
2019-05-26T04:42:22.645Z,99930.56
2019-05-26T04:44:55.210Z,99928.80
2019-05-26T04:47:27.916Z,99929.23
2019-05-26T04:50:01.158Z,99928.57
2019-05-26T04:52:33.885Z,99926.99
2019-05-26T04:55:06.469Z,99923.15
2019-05-26T04:57:39.077Z,99925.24
2019-05-26T05:00:11.806Z,99930.50
2019-05-26T05:02:44.286Z,99930.42
2019-05-26T05:05:16.776Z,99934.66
2019-05-26T05:07:49.556Z,99934.75
2019-05-26T05:10:22.035Z,99939.39
2019-05-26T05:12:55.577Z,99936.38
2019-05-26T05:15:28.211Z,99942.68
2019-05-26T05:18:01.131Z,99946.21
2019-05-26T05:20:33.669Z,99942.80
2019-05-26T05:23:06.290Z,99947.16
2019-05-26T05:25:38.866Z,99945.53
2019-05-26T05:28:11.726Z,99955.95
2019-05-26T05:30:44.274Z,99958.27
2019-05-26T05:33:16.837Z,99959.45
2019-05-26T05:35:49.361Z,99964.79
2019-05-26T05:38:21.972Z,99965.78
2019-05-26T05:40:59.470Z,99970.42
2019-05-26T05:43:28.966Z,99970.08
2019-05-26T05:46:01.617Z,99962.02
2019-05-26T05:48:34.175Z,99959.23
2019-05-26T05:51:06.732Z,99959.96
2019-05-26T05:53:40.745Z,99956.67
2019-05-26T05:56:13.260Z,99959.77
2019-05-26T05:58:45.855Z,99955.23
2019-05-26T06:01:18.425Z,99952.41
2019-05-26T06:03:51.535Z,99955.64
2019-05-26T06:06:23.955Z,99960.77
2019-05-26T06:08:56.645Z,99957.25
2019-05-26T06:11:29.256Z,99947.84
2019-05-26T06:14:01.868Z,99947.02
2019-05-26T06:16:35.425Z,99957.07
2019-05-26T06:19:07.932Z,99945.23
2019-05-26T06:21:40.585Z,99945.97
2019-05-26T06:24:13.210Z,99943.48
2019-05-26T06:26:45.855Z,99943.48
2019-05-26T06:29:18.386Z,99938.66
2019-05-26T06:31:51.021Z,99937.36
2019-05-26T06:34:23.685Z,99940.51
2019-05-26T06:36:56.336Z,99937.23
2019-05-26T06:39:30.029Z,99942.42
2019-05-26T06:42:02.895Z,99933.20
2019-05-26T06:44:52.188Z,99941.53
2019-05-26T06:47:09.955Z,99940.55
2019-05-26T06:49:42.486Z,99937.36
2019-05-26T06:52:15.559Z,99936.14
2019-05-26T06:54:48.333Z,99937.94
2019-05-26T06:57:20.935Z,99942.39
2019-05-26T06:59:53.455Z,99946.74
2019-05-26T07:02:25.876Z,99934.20
2019-05-26T07:04:58.527Z,99936.90
2019-05-26T07:07:31.055Z,99930.43
2019-05-26T07:10:04.723Z,99939.05
2019-05-26T07:12:37.235Z,99934.53
2019-05-26T07:15:10.976Z,99932.03
2019-05-26T07:17:43.795Z,99938.62
2019-05-26T07:20:16.565Z,99933.58
2019-05-26T07:22:49.076Z,99942.14
2019-05-26T07:25:21.719Z,99942.17
2019-05-26T07:27:55.443Z,99934.02
2019-05-26T07:30:27.885Z,99937.75
2019-05-26T07:33:00.426Z,99939.04
2019-05-26T07:35:33.328Z,99944.08
2019-05-26T07:38:06.175Z,99944.45
2019-05-26T07:40:41.989Z,99940.06
2019-05-26T07:43:14.555Z,99943.91
2019-05-26T07:45:47.755Z,99945.03
2019-05-26T07:48:20.203Z,99941.42
2019-05-26T07:50:52.725Z,99937.25
2019-05-26T07:53:25.315Z,99947.25
2019-05-26T07:55:57.745Z,99944.45
2019-05-26T07:58:30.637Z,99947.11
2019-05-26T08:01:03.205Z,99946.11
2019-05-26T08:03:42.268Z,99952.32
2019-05-26T08:06:31.666Z,99960.92
2019-05-26T08:09:08.235Z,99931.89
2019-05-26T08:11:48.315Z,99945.08
2019-05-26T08:18:00.001Z,99941.42
2019-05-26T08:20:33.157Z,99943.58
2019-05-26T08:23:05.666Z,99935.73
2019-05-26T08:25:38.486Z,99941.35
2019-05-26T08:28:14.515Z,99938.27
2019-05-26T08:30:48.645Z,99945.94
2019-05-26T08:33:23.168Z,99931.38
2019-05-26T08:35:56.994Z,99940.30
2019-05-26T08:38:29.623Z,99930.88
2019-05-26T08:41:04.355Z,99921.23
2019-05-26T08:43:42.139Z,99923.00
2019-05-26T08:46:30.618Z,99924.56
2019-05-26T08:49:09.537Z,99924.70
2019-05-26T08:51:49.325Z,99926.47
2019-05-26T08:54:31.275Z,99925.02
2019-05-26T08:57:28.025Z,99926.66
2019-05-26T09:00:21.676Z,99923.44
2019-05-26T09:03:07.305Z,99924.92
2019-05-26T09:05:44.636Z,99921.20
2019-05-26T09:08:17.149Z,99920.87
2019-05-26T09:10:49.720Z,99916.45
2019-05-26T09:13:22.342Z,99913.35
2019-05-26T09:15:55.876Z,99910.41
2019-05-26T09:18:29.195Z,99912.30
2019-05-26T09:21:01.736Z,99909.33
2019-05-26T09:23:34.465Z,99920.30
2019-05-26T09:26:07.046Z,99913.19
2019-05-26T09:28:39.946Z,99913.91
2019-05-26T09:31:12.677Z,99915.44
2019-05-26T09:33:45.087Z,99912.64
2019-05-26T09:36:18.184Z,99911.89
2019-05-26T09:38:50.626Z,99910.06
2019-05-26T09:41:23.206Z,99908.88
2019-05-26T09:43:55.807Z,99905.79
2019-05-26T09:46:28.376Z,99904.31
2019-05-26T09:49:01.191Z,99898.64
2019-05-26T09:51:34.305Z,99892.70
2019-05-26T09:54:06.958Z,99890.58
2019-05-26T09:56:39.455Z,99884.84
2019-05-26T09:59:12.164Z,99885.53
2019-05-26T10:01:44.895Z,99881.80
2019-05-26T10:04:17.466Z,99890.97
2019-05-26T10:06:50.235Z,99887.05
2019-05-26T10:09:24.489Z,99886.81
2019-05-26T10:11:57.149Z,99883.14
2019-05-26T10:14:29.817Z,99885.36
2019-05-26T10:17:02.505Z,99879.64
2019-05-26T10:19:35.145Z,99882.88
2019-05-26T10:22:07.616Z,99882.52
2019-05-26T10:24:40.155Z,99872.65
2019-05-26T10:27:12.729Z,99873.30
2019-05-26T10:29:46.168Z,99875.05
2019-05-26T10:32:18.638Z,99867.17
2019-05-26T10:34:51.138Z,99868.75
2019-05-26T10:37:23.772Z,99875.62
2019-05-26T10:39:56.355Z,99880.27
2019-05-26T10:42:28.910Z,99860.95
2019-05-26T10:45:03.635Z,99845.41
2019-05-26T10:47:36.416Z,99856.08
2019-05-26T10:50:09.356Z,99854.31
2019-05-26T10:52:42.926Z,99861.71
2019-05-26T10:55:15.564Z,99855.91
2019-05-26T10:57:48.155Z,99854.50
2019-05-26T11:00:20.885Z,99857.73
2019-05-26T11:02:53.746Z,99863.09
2019-05-26T11:05:26.904Z,99850.34
2019-05-26T11:08:00.686Z,99846.47
2019-05-26T11:10:33.396Z,99847.52
2019-05-26T11:13:06.025Z,99848.80
2019-05-26T11:15:39.216Z,99846.80
2019-05-26T11:18:11.824Z,99844.77
2019-05-26T11:20:45.666Z,99838.59
2019-05-26T11:23:19.336Z,99828.54
2019-05-26T11:25:51.946Z,99826.72
2019-05-26T11:28:24.525Z,99839.76
2019-05-26T11:30:57.086Z,99836.58
2019-05-26T11:33:29.689Z,99833.41
2019-05-26T11:36:02.338Z,99837.44
2019-05-26T11:38:34.816Z,99829.33
2019-05-26T11:41:07.436Z,99824.38
2019-05-26T11:43:40.126Z,99829.59
2019-05-26T11:46:16.415Z,99827.66
2019-05-26T11:48:46.926Z,99829.17
2019-05-26T11:51:20.254Z,99818.80
2019-05-26T11:53:53.823Z,99817.55
2019-05-26T11:56:26.375Z,99812.77
2019-05-26T11:58:59.055Z,99800.52
2019-05-26T12:01:31.587Z,99792.58
2019-05-26T12:04:04.124Z,99792.91
2019-05-26T12:06:37.325Z,99795.22
2019-05-26T12:09:10.613Z,99789.27
2019-05-26T12:11:43.276Z,99787.30
2019-05-26T12:14:15.716Z,99778.96
2019-05-26T12:16:48.245Z,99778.08
2019-05-26T12:19:20.785Z,99783.89
2019-05-26T12:21:53.336Z,99776.33
2019-05-26T12:24:25.866Z,99776.86
2019-05-26T12:26:58.836Z,99762.95
2019-05-26T12:29:31.266Z,99764.27
2019-05-26T12:32:03.907Z,99757.34
2019-05-26T12:34:36.676Z,99759.38
2019-05-26T12:37:09.207Z,99755.30
2019-05-26T12:39:41.639Z,99756.86
2019-05-26T12:42:16.976Z,99755.00
2019-05-26T12:44:50.233Z,99752.22
2019-05-26T12:47:22.835Z,99745.77
2019-05-26T12:49:55.406Z,99743.95
2019-05-26T12:52:27.895Z,99739.33
2019-05-26T12:55:00.556Z,99736.02
2019-05-26T12:57:33.044Z,99733.50
2019-05-26T13:00:05.976Z,99727.92
2019-05-26T13:02:39.814Z,99732.09
2019-05-26T13:05:12.476Z,99733.27
2019-05-26T13:07:44.926Z,99735.61
2019-05-26T13:10:18.435Z,99731.08
2019-05-26T13:12:51.094Z,99732.89
2019-05-26T13:15:24.015Z,99733.54
2019-05-26T13:17:57.726Z,99731.52
2019-05-26T13:20:30.200Z,99728.52
2019-05-26T13:23:02.746Z,99723.22
2019-05-26T13:25:35.608Z,99729.13
2019-05-26T13:28:08.156Z,99724.95
2019-05-26T13:30:41.283Z,99715.28
2019-05-26T13:33:13.937Z,99717.64
2019-05-26T13:35:47.465Z,99729.88
2019-05-26T13:38:20.075Z,99720.88
2019-05-26T13:40:52.615Z,99715.97
2019-05-26T13:43:25.216Z,99715.66
2019-05-26T13:45:57.715Z,99713.67
2019-05-26T13:48:30.605Z,99706.81
2019-05-26T13:51:03.296Z,99710.47
2019-05-26T13:53:36.396Z,99702.71
2019-05-26T13:56:08.795Z,99698.67
2019-05-26T13:58:41.398Z,99702.66
2019-05-26T14:01:13.835Z,99698.79
2019-05-26T14:03:46.346Z,99699.59
2019-05-26T14:06:18.915Z,99698.90
2019-05-26T14:08:51.596Z,99699.61
2019-05-26T14:11:24.627Z,99687.19
2019-05-26T14:13:58.099Z,99688.28
2019-05-26T14:16:31.936Z,99688.98
2019-05-26T14:19:05.995Z,99697.05
2019-05-26T14:21:38.753Z,99693.26
2019-05-26T14:24:11.665Z,99696.44
2019-05-26T14:26:44.515Z,99689.06
2019-05-26T14:29:17.176Z,99698.75
2019-05-26T14:31:52.711Z,99691.37
2019-05-26T14:34:24.509Z,99687.33
2019-05-26T14:36:57.135Z,99684.34
2019-05-26T14:39:29.925Z,99681.53
2019-05-26T14:42:02.580Z,99682.72
2019-05-26T14:44:35.361Z,99680.48
2019-05-26T14:47:08.267Z,99673.80
2019-05-26T14:49:41.089Z,99684.83
2019-05-26T14:52:13.695Z,99687.02
2019-05-26T14:54:46.585Z,99679.30
2019-05-26T14:57:19.137Z,99679.61
2019-05-26T14:59:52.044Z,99671.56
2019-05-26T15:02:24.526Z,99679.94
2019-05-26T15:04:57.495Z,99679.23
2019-05-26T15:07:31.985Z,99683.25
2019-05-26T15:10:05.516Z,99679.22
2019-05-26T15:12:38.035Z,99684.38
2019-05-26T15:15:10.897Z,99688.93
2019-05-26T15:17:43.799Z,99682.23
2019-05-26T15:20:17.246Z,99678.91
2019-05-26T15:22:51.113Z,99679.27
2019-05-26T15:25:23.806Z,99670.90
2019-05-26T15:27:56.274Z,99675.08
2019-05-26T15:30:28.949Z,99670.21
2019-05-26T15:33:01.471Z,99673.86
2019-05-26T15:35:34.200Z,99679.83
2019-05-26T15:38:06.963Z,99676.82
2019-05-26T15:40:39.645Z,99674.65
2019-05-26T15:43:12.179Z,99671.59
2019-05-26T15:45:44.856Z,99673.09
2019-05-26T15:48:17.425Z,99674.61
2019-05-26T15:50:49.977Z,99676.41
2019-05-26T15:53:22.495Z,99665.55
2019-05-26T15:55:55.074Z,99666.19
2019-05-26T15:58:27.798Z,99670.85
2019-05-26T16:01:00.428Z,99665.55
2019-05-26T16:03:33.170Z,99663.18
2019-05-26T16:06:05.995Z,99671.62
2019-05-26T16:08:39.425Z,99668.06
2019-05-26T16:11:12.145Z,99673.08
2019-05-26T16:13:44.585Z,99669.38
2019-05-26T16:16:17.555Z,99669.01
2019-05-26T16:18:50.206Z,99669.25
2019-05-26T16:21:27.973Z,99660.91
2019-05-26T16:23:57.795Z,99662.02
2019-05-26T16:26:30.605Z,99660.31
2019-05-26T16:29:03.245Z,99661.84
2019-05-26T16:31:35.795Z,99663.80
2019-05-26T16:34:08.366Z,99672.23
2019-05-26T16:36:41.735Z,99672.23
2019-05-26T16:39:14.335Z,99674.61
2019-05-26T16:41:46.826Z,99665.44
2019-05-26T16:44:19.366Z,99666.11
2019-05-26T16:46:56.527Z,99673.13
2019-05-26T16:49:26.045Z,99673.13
2019-05-26T16:51:58.535Z,99659.50
2019-05-26T16:54:31.218Z,99665.44
2019-05-26T16:57:03.653Z,99665.44
2019-05-26T16:59:36.345Z,99668.83
2019-05-26T17:02:10.169Z,99663.01
2019-05-26T17:04:42.746Z,99668.30
2019-05-26T17:07:15.305Z,99663.25
2019-05-26T17:09:47.799Z,99660.56
2019-05-26T17:12:20.255Z,99667.23
2019-05-26T17:14:53.767Z,99665.73
2019-05-26T17:17:26.229Z,99652.50
2019-05-26T17:19:58.864Z,99659.52
2019-05-26T17:22:32.046Z,99640.14
2019-05-26T17:25:05.035Z,99651.23
2019-05-26T17:27:37.638Z,99652.97
2019-05-26T17:30:11.385Z,99648.84
2019-05-26T17:32:45.766Z,99647.71
2019-05-26T17:35:18.809Z,99641.00
2019-05-26T17:37:52.140Z,99644.81
2019-05-26T17:40:24.745Z,99646.09
2019-05-26T17:42:57.316Z,99649.77
2019-05-26T17:45:29.926Z,99649.42
2019-05-26T17:48:02.415Z,99649.86
2019-05-26T17:50:34.955Z,99652.90
2019-05-26T17:53:08.636Z,99650.70
2019-05-26T17:55:41.307Z,99651.41
2019-05-26T17:58:15.066Z,99649.88
2019-05-26T18:00:47.826Z,99648.02
2019-05-26T18:03:20.387Z,99650.92
2019-05-26T18:05:53.245Z,99644.41
2019-05-26T18:08:25.665Z,99644.75
2019-05-26T18:10:58.418Z,99651.94
2019-05-26T18:13:31.065Z,99656.91
2019-05-26T18:16:03.935Z,99646.90
2019-05-26T18:18:36.766Z,99653.45
2019-05-26T18:21:10.185Z,99652.98
2019-05-26T18:23:42.996Z,99663.77
2019-05-26T18:26:15.416Z,99668.61
2019-05-26T18:28:47.856Z,99671.13
2019-05-26T18:31:22.136Z,99672.38
2019-05-26T18:33:54.649Z,99672.30
2019-05-26T18:36:27.277Z,99676.56
2019-05-26T18:38:59.865Z,99684.17
2019-05-26T18:41:32.448Z,99677.34
2019-05-26T18:44:05.276Z,99680.03
2019-05-26T18:46:37.907Z,99680.89
2019-05-26T18:49:10.805Z,99684.86
2019-05-26T18:51:43.464Z,99683.29
2019-05-26T18:54:16.435Z,99687.96
2019-05-26T18:56:49.758Z,99690.27
2019-05-26T18:59:22.479Z,99694.12
2019-05-26T19:01:54.995Z,99692.54
2019-05-26T19:04:27.568Z,99697.97
2019-05-26T19:07:00.225Z,99684.91
2019-05-26T19:09:32.865Z,99693.00
2019-05-26T19:12:06.067Z,99692.98
2019-05-26T19:14:38.925Z,99690.55
2019-05-26T19:17:11.999Z,99697.19
2019-05-26T19:19:44.579Z,99695.23
2019-05-26T19:22:17.057Z,99690.63
2019-05-26T19:24:49.656Z,99695.79
2019-05-26T19:27:22.495Z,99691.93
2019-05-26T19:29:54.876Z,99694.08
2019-05-26T19:32:27.316Z,99694.27
2019-05-26T19:34:59.875Z,99691.70
2019-05-26T19:37:32.467Z,99689.63
2019-05-26T19:40:05.357Z,99689.59
2019-05-26T19:42:38.155Z,99690.52
2019-05-26T19:45:10.815Z,99688.55
2019-05-26T19:47:44.505Z,99693.94
2019-05-26T19:50:18.115Z,99694.51
2019-05-26T19:52:50.846Z,99693.59
2019-05-26T19:55:23.825Z,99691.88
2019-05-26T19:57:56.359Z,99692.11
2019-05-26T20:00:29.656Z,99696.08
2019-05-26T20:03:02.490Z,99690.14
2019-05-26T20:05:34.928Z,99690.84
2019-05-26T20:08:07.575Z,99689.98
2019-05-26T20:10:40.134Z,99688.25
2019-05-26T20:13:12.688Z,99683.66
2019-05-26T20:15:46.445Z,99688.19
2019-05-26T20:18:20.066Z,99687.11
2019-05-26T20:20:52.569Z,99687.49
2019-05-26T20:23:26.084Z,99688.89
2019-05-26T20:26:01.721Z,99694.02
2019-05-26T20:28:34.629Z,99695.64
2019-05-26T20:31:07.235Z,99691.96
2019-05-26T20:33:40.376Z,99694.78
2019-05-26T20:36:13.877Z,99697.25
2019-05-26T20:38:46.495Z,99693.98
2019-05-26T20:41:21.174Z,99698.69
2019-05-26T20:43:55.525Z,99703.34
2019-05-26T20:46:28.257Z,99697.09
2019-05-26T20:49:00.648Z,99703.77
2019-05-26T20:51:34.238Z,99701.13
2019-05-26T20:54:06.726Z,99704.03
2019-05-26T20:56:39.786Z,99705.45
2019-05-26T20:59:12.853Z,99698.84
2019-05-26T21:01:45.257Z,99700.73
2019-05-26T21:04:18.500Z,99702.28
2019-05-26T21:06:52.705Z,99706.53
2019-05-26T21:09:25.936Z,99711.02
2019-05-26T21:11:58.666Z,99704.67
2019-05-26T21:14:31.176Z,99706.88
2019-05-26T21:17:03.736Z,99705.39
2019-05-26T21:19:36.346Z,99704.00
2019-05-26T21:22:08.905Z,99705.91
2019-05-26T21:24:42.844Z,99703.46
2019-05-26T21:27:15.999Z,99703.69
2019-05-26T21:29:48.859Z,99705.66
2019-05-26T21:32:21.486Z,99707.56
2019-05-26T21:34:54.035Z,99699.57
2019-05-26T21:37:29.605Z,99695.90
2019-05-26T21:40:04.621Z,99700.51
2019-05-26T21:42:37.155Z,99701.19
2019-05-26T21:45:09.876Z,99700.55
2019-05-26T21:47:42.965Z,99700.64
2019-05-26T21:50:15.730Z,99703.75
2019-05-26T21:52:48.278Z,99703.69
2019-05-26T21:55:21.315Z,99701.83
2019-05-26T21:57:54.145Z,99701.92
2019-05-26T22:00:29.150Z,99700.11
2019-05-26T22:03:03.555Z,99701.55
2019-05-26T22:05:36.475Z,99701.70
2019-05-26T22:08:08.976Z,99703.24
2019-05-26T22:10:41.556Z,99704.75
2019-05-26T22:13:14.076Z,99695.16
2019-05-26T22:15:46.695Z,99687.92
2019-05-26T22:18:19.235Z,99692.16
2019-05-26T22:20:51.765Z,99685.61
2019-05-26T22:23:24.199Z,99688.42
2019-05-26T22:25:56.556Z,99686.83
2019-05-26T22:28:29.956Z,99686.28
2019-05-26T22:31:03.764Z,99686.38
2019-05-26T22:33:36.418Z,99678.28
2019-05-26T22:36:09.077Z,99676.05
2019-05-26T22:38:41.517Z,99674.91
2019-05-26T22:41:14.195Z,99679.36
2019-05-26T22:43:46.765Z,99675.28
2019-05-26T22:46:20.105Z,99675.86
2019-05-26T22:48:52.775Z,99671.81
2019-05-26T22:51:25.298Z,99668.27
2019-05-26T22:53:57.841Z,99671.94
2019-05-26T22:56:30.954Z,99669.12
2019-05-26T22:59:03.525Z,99667.34
2019-05-26T23:01:36.196Z,99666.88
2019-05-26T23:04:08.726Z,99666.60
2019-05-26T23:06:41.236Z,99658.97
2019-05-26T23:09:13.796Z,99658.78
2019-05-26T23:11:46.485Z,99653.16
2019-05-26T23:14:19.267Z,99654.06
2019-05-26T23:16:51.658Z,99655.59
2019-05-26T23:19:24.206Z,99649.09
2019-05-26T23:21:56.616Z,99649.09
2019-05-26T23:24:29.136Z,99645.33
2019-05-26T23:27:03.034Z,99645.72
2019-05-26T23:29:35.431Z,99648.75
2019-05-26T23:32:07.969Z,99649.94
2019-05-26T23:34:40.616Z,99647.98
2019-05-26T23:37:13.215Z,99645.72
2019-05-26T23:39:45.775Z,99639.23
2019-05-26T23:42:18.385Z,99641.96
2019-05-26T23:44:51.105Z,99637.73
2019-05-26T23:47:24.016Z,99642.81
2019-05-26T23:49:56.706Z,99650.06
2019-05-26T23:52:29.295Z,99646.71
2019-05-26T23:55:02.046Z,99646.16
2019-05-26T23:57:34.635Z,99645.41
